ADDS TAF Data INFO
IDs: Format: Raw Decoded Include METARs

Data at: 0940 UTC 19 Jul 2018

KIWA 190935Z AUTO 30006KT 10SM CLR 32/20 A2994 RMK AO2 T03170199

KIWA 190520Z 1906/2006 27010KT P6SM SCT070 BKN140 BKN250
  FM191000 12006KT P6SM SCT120 BKN250
  FM191600 28009KT P6SM FEW150 SCT250
  FM191900 27011G18KT P6SM FEW080 SCT150 SCT250
  FM200300 06011KT P6SM SCT080 BKN150 BKN250 AMD LTD TO CLD VIS AND WIND TIL 191300